Aviation Digital Data Service (ADDS)

Output produced by METARs form (1220 UTC 19 January 2019)
found at http://www.aviationweather.gov/metar/data/
 
METAR text: KMDT 191156Z 13003KT 6SM HZ OVC044 01/M02 A3018 RMK AO2 SLP222 T00061022 10011 20000 53004
Conditions at: KMDT (MIDDLETOWN , PA, US) observed 1156 UTC 19 January 2019
Temperature: 0.6°C (33°F)
Dewpoint: -2.2°C (28°F) [RH = 81%]
Pressure (altimeter): 30.18 inches Hg (1022.1 mb)
[Sea-level pressure: 1022.2 mb]
Winds: from the SE (130 degrees) at 3 MPH (3 knots; 1.5 m/s)
Visibility: 6 miles (10 km)
Ceiling: 4400 feet AGL
Clouds: overcast cloud deck at 4400 feet AGL
Weather: HZ  (haze)

METAR text: KMDT 191056Z 00000KT 6SM BR OVC044 01/M01 A3017 RMK AO2 SLP220 T00061011
Conditions at: KMDT (MIDDLETOWN , PA, US) observed 1056 UTC 19 January 2019
Temperature: 0.6°C (33°F)
Dewpoint: -1.1°C (30°F) [RH = 88%]
Pressure (altimeter): 30.17 inches Hg (1021.8 mb)
[Sea-level pressure: 1022.0 mb]
Winds: calm
Visibility: 6 miles (10 km)
Ceiling: 4400 feet AGL
Clouds: overcast cloud deck at 4400 feet AGL
Weather: BR  (mist)

METAR text: KMDT 190956Z 00000KT 7SM OVC048 01/M02 A3017 RMK AO2 SLP220 T00061017
Conditions at: KMDT (MIDDLETOWN , PA, US) observed 0956 UTC 19 January 2019
Temperature: 0.6°C (33°F)
Dewpoint: -1.7°C (29°F) [RH = 85%]
Pressure (altimeter): 30.17 inches Hg (1021.8 mb)
[Sea-level pressure: 1022.0 mb]
Winds: calm
Visibility: 7 miles (11 km)
Ceiling: 4800 feet AGL
Clouds: overcast cloud deck at 4800 feet AGL
Weather: no significant weather observed at this time

METAR text: KMDT 190856Z 00000KT 6SM BR OVC045 00/M01 A3016 RMK AO2 SLP218 T00001011 58008
Conditions at: KMDT (MIDDLETOWN , PA, US) observed 0856 UTC 19 January 2019
Temperature: 0.0°C (32°F)
Dewpoint: -1.1°C (30°F) [RH = 92%]
Pressure (altimeter): 30.16 inches Hg (1021.4 mb)
[Sea-level pressure: 1021.8 mb]
Winds: calm
Visibility: 6 miles (10 km)
Ceiling: 4500 feet AGL
Clouds: overcast cloud deck at 4500 feet AGL
Weather: BR  (mist)

METAR text: KMDT 190756Z 13004KT 5SM BR OVC042 01/M01 A3019 RMK AO2 SLP226 T00111006
Conditions at: KMDT (MIDDLETOWN , PA, US) observed 0756 UTC 19 January 2019
Temperature: 1.1°C (34°F)
Dewpoint: -0.6°C (31°F) [RH = 88%]
Pressure (altimeter): 30.19 inches Hg (1022.4 mb)
[Sea-level pressure: 1022.6 mb]
Winds: from the SE (130 degrees) at 5 MPH (4 knots; 2.1 m/s)
Visibility: 5 miles ( 8 km)
Ceiling: 4200 feet AGL
Clouds: overcast cloud deck at 4200 feet AGL
Weather: BR  (mist)

METAR text: KMDT 190656Z 00000KT 6SM BR OVC043 01/M01 A3020 RMK AO2 SLP229 T00111011
Conditions at: KMDT (MIDDLETOWN , PA, US) observed 0656 UTC 19 January 2019
Temperature: 1.1°C (34°F)
Dewpoint: -1.1°C (30°F) [RH = 85%]
Pressure (altimeter): 30.20 inches Hg (1022.8 mb)
[Sea-level pressure: 1022.9 mb]
Winds: calm
Visibility: 6 miles (10 km)
Ceiling: 4300 feet AGL
Clouds: overcast cloud deck at 4300 feet AGL
Weather: BR  (mist)

METAR text: KMDT 190556Z 00000KT 6SM BR OVC045 01/M01 A3019 RMK AO2 SLP226 T00061006 10022 20006 51001
Conditions at: KMDT (MIDDLETOWN , PA, US) observed 0556 UTC 19 January 2019
Temperature: 0.6°C (33°F)
Dewpoint: -0.6°C (31°F) [RH = 92%]
Pressure (altimeter): 30.19 inches Hg (1022.4 mb)
[Sea-level pressure: 1022.6 mb]
Winds: calm
Visibility: 6 miles (10 km)
Ceiling: 4500 feet AGL
Clouds: overcast cloud deck at 4500 feet AGL
Weather: BR  (mist)

METAR text: KMDT 190456Z 00000KT 5SM BR OVC043 01/M01 A3018 RMK AO2 SLP225 T00111006 400221028
Conditions at: KMDT (MIDDLETOWN , PA, US) observed 0456 UTC 19 January 2019
Temperature: 1.1°C (34°F)
Dewpoint: -0.6°C (31°F) [RH = 88%]
Pressure (altimeter): 30.18 inches Hg (1022.1 mb)
[Sea-level pressure: 1022.5 mb]
Winds: calm
Visibility: 5 miles ( 8 km)
Ceiling: 4300 feet AGL
Clouds: overcast cloud deck at 4300 feet AGL
Weather: BR  (mist)

METAR text: KMDT 190356Z 00000KT 7SM OVC044 01/M01 A3019 RMK AO2 SLP227 T00111006
Conditions at: KMDT (MIDDLETOWN , PA, US) observed 0356 UTC 19 January 2019
Temperature: 1.1°C (34°F)
Dewpoint: -0.6°C (31°F) [RH = 88%]
Pressure (altimeter): 30.19 inches Hg (1022.4 mb)
[Sea-level pressure: 1022.7 mb]
Winds: calm
Visibility: 7 miles (11 km)
Ceiling: 4400 feet AGL
Clouds: overcast cloud deck at 4400 feet AGL
Weather: no significant weather observed at this time

METAR text: KMDT 190256Z 33004KT 4SM BR OVC044 01/M01 A3018 RMK AO2 SLP225 T00111006 52018
Conditions at: KMDT (MIDDLETOWN , PA, US) observed 0256 UTC 19 January 2019
Temperature: 1.1°C (34°F)
Dewpoint: -0.6°C (31°F) [RH = 88%]
Pressure (altimeter): 30.18 inches Hg (1022.1 mb)
[Sea-level pressure: 1022.5 mb]
Winds: from the NNW (330 degrees) at 5 MPH (4 knots; 2.1 m/s)
Visibility: 4 miles ( 6 km)
Ceiling: 4400 feet AGL
Clouds: overcast cloud deck at 4400 feet AGL
Weather: BR  (mist)

METAR text: KMDT 190156Z 15003KT 3SM BR OVC048 01/M01 A3016 RMK AO2 SLP217 T00111006
Conditions at: KMDT (MIDDLETOWN , PA, US) observed 0156 UTC 19 January 2019
Temperature: 1.1°C (34°F)
Dewpoint: -0.6°C (31°F) [RH = 88%]
Pressure (altimeter): 30.16 inches Hg (1021.4 mb)
[Sea-level pressure: 1021.7 mb]
Winds: from the SSE (150 degrees) at 3 MPH (3 knots; 1.5 m/s)
Visibility: 3 miles ( 5 km)
Ceiling: 4800 feet AGL
Clouds: overcast cloud deck at 4800 feet AGL
Weather: BR  (mist)

METAR text: KMDT 190056Z 31004KT 4SM BR FEW028 SCT036 OVC050 02/M01 A3015 RMK AO2 SLP214 T00171006
Conditions at: KMDT (MIDDLETOWN , PA, US) observed 0056 UTC 19 January 2019
Temperature: 1.7°C (35°F)
Dewpoint: -0.6°C (31°F) [RH = 85%]
Pressure (altimeter): 30.15 inches Hg (1021.1 mb)
[Sea-level pressure: 1021.4 mb]
Winds: from the NW (310 degrees) at 5 MPH (4 knots; 2.1 m/s)
Visibility: 4 miles ( 6 km)
Ceiling: 5000 feet AGL
Clouds: few clouds at 2800 feet AGL
scattered clouds at 3600 feet AGL
overcast cloud deck at 5000 feet AGL
Weather: BR  (mist)

METAR text: KMDT 182356Z 31006KT 4SM BR OVC050 02/M01 A3013 RMK AO2 SLP207 T00171011 10022 21006 53016
Conditions at: KMDT (MIDDLETOWN , PA, US) observed 2356 UTC 18 January 2019
Temperature: 1.7°C (35°F)
Dewpoint: -1.1°C (30°F) [RH = 82%]
Pressure (altimeter): 30.13 inches Hg (1020.4 mb)
[Sea-level pressure: 1020.7 mb]
Winds: from the NW (310 degrees) at 7 MPH (6 knots; 3.1 m/s)
Visibility: 4 miles ( 6 km)
Ceiling: 5000 feet AGL
Clouds: overcast cloud deck at 5000 feet AGL
Weather: BR  (mist)

METAR text: KMDT 182256Z 00000KT 4SM BR BKN060 01/M01 A3010 RMK AO2 SLP196 T00111011
Conditions at: KMDT (MIDDLETOWN , PA, US) observed 2256 UTC 18 January 2019
Temperature: 1.1°C (34°F)
Dewpoint: -1.1°C (30°F) [RH = 85%]
Pressure (altimeter): 30.10 inches Hg (1019.4 mb)
[Sea-level pressure: 1019.6 mb]
Winds: calm
Visibility: 4 miles ( 6 km)
Ceiling: 6000 feet AGL
Clouds: broken clouds at 6000 feet AGL
Weather: BR  (mist)

METAR text: KMDT 182156Z 00000KT 4SM HZ OVC060 02/M01 A3009 RMK AO2 SLP194 T00221011
Conditions at: KMDT (MIDDLETOWN , PA, US) observed 2156 UTC 18 January 2019
Temperature: 2.2°C (36°F)
Dewpoint: -1.1°C (30°F) [RH = 79%]
Pressure (altimeter): 30.09 inches Hg (1019.0 mb)
[Sea-level pressure: 1019.4 mb]
Winds: calm
Visibility: 4 miles ( 6 km)
Ceiling: 6000 feet AGL
Clouds: overcast cloud deck at 6000 feet AGL
Weather: HZ  (haze)

METAR text: KMDT 182056Z 31005KT 4SM HZ FEW010 BKN060 02/M01 A3008 RMK AO2 SLP191 T00221011 53006
Conditions at: KMDT (MIDDLETOWN , PA, US) observed 2056 UTC 18 January 2019
Temperature: 2.2°C (36°F)
Dewpoint: -1.1°C (30°F) [RH = 79%]
Pressure (altimeter): 30.08 inches Hg (1018.7 mb)
[Sea-level pressure: 1019.1 mb]
Winds: from the NW (310 degrees) at 6 MPH (5 knots; 2.6 m/s)
Visibility: 4 miles ( 6 km)
Ceiling: 6000 feet AGL
Clouds: few clouds at 1000 feet AGL
broken clouds at 6000 feet AGL
Weather: HZ  (haze)

METAR text: KMDT 181956Z 31005KT 4SM HZ OVC055 02/M02 A3008 RMK AO2 SLP189 T00171017
Conditions at: KMDT (MIDDLETOWN , PA, US) observed 1956 UTC 18 January 2019
Temperature: 1.7°C (35°F)
Dewpoint: -1.7°C (29°F) [RH = 78%]
Pressure (altimeter): 30.08 inches Hg (1018.7 mb)
[Sea-level pressure: 1018.9 mb]
Winds: from the NW (310 degrees) at 6 MPH (5 knots; 2.6 m/s)
Visibility: 4 miles ( 6 km)
Ceiling: 5500 feet AGL
Clouds: overcast cloud deck at 5500 feet AGL
Weather: HZ  (haze)

METAR text: KMDT 181856Z 29005KT 3SM HZ FEW016 OVC050 01/M02 A3007 RMK AO2 SLP185 T00061022
Conditions at: KMDT (MIDDLETOWN , PA, US) observed 1856 UTC 18 January 2019
Temperature: 0.6°C (33°F)
Dewpoint: -2.2°C (28°F) [RH = 81%]
Pressure (altimeter): 30.07 inches Hg (1018.4 mb)
[Sea-level pressure: 1018.5 mb]
Winds: from the WNW (290 degrees) at 6 MPH (5 knots; 2.6 m/s)
Visibility: 3 miles ( 5 km)
Ceiling: 5000 feet AGL
Clouds: few clouds at 1600 feet AGL
overcast cloud deck at 5000 feet AGL
Weather: HZ  (haze)

METAR text: KMDT 181852Z 30004KT 3SM BR FEW016 OVC050 01/M02 A3006 RMK AO2
Conditions at: KMDT (MIDDLETOWN , PA, US) observed 1852 UTC 18 January 2019
Temperature: 1.0°C (34°F)
Dewpoint: -2.0°C (28°F) [RH = 80%]
Pressure (altimeter): 30.06 inches Hg (1018.0 mb)
Winds: from the WNW (300 degrees) at 5 MPH (4 knots; 2.1 m/s)
Visibility: 3 miles ( 5 km)
Ceiling: 5000 feet AGL
Clouds: few clouds at 1600 feet AGL
overcast cloud deck at 5000 feet AGL
Weather: BR  (mist)

METAR text: KMDT 181819Z 26003KT 2 1/2SM HZ SCT010 OVC050 01/M02 A3006 RMK AO2 T00061022
Conditions at: KMDT (MIDDLETOWN , PA, US) observed 1819 UTC 18 January 2019
Temperature: 0.6°C (33°F)
Dewpoint: -2.2°C (28°F) [RH = 81%]
Pressure (altimeter): 30.06 inches Hg (1018.0 mb)
Winds: from the W (260 degrees) at 3 MPH (3 knots; 1.5 m/s)
Visibility: 2.50 miles (4.02 km)
Ceiling: 5000 feet AGL
Clouds: scattered clouds at 1000 feet AGL
overcast cloud deck at 5000 feet AGL
Weather: HZ  (haze)

METAR text: KMDT 181809Z 00000KT 2 1/2SM BR BKN010 OVC050 00/M02 A3006 RMK AO2 T00001022
Conditions at: KMDT (MIDDLETOWN , PA, US) observed 1809 UTC 18 January 2019
Temperature: 0.0°C (32°F)
Dewpoint: -2.2°C (28°F) [RH = 85%]
Pressure (altimeter): 30.06 inches Hg (1018.0 mb)
Winds: calm
Visibility: 2.50 miles (4.02 km)
Ceiling: 1000 feet AGL
Clouds: broken clouds at 1000 feet AGL
overcast cloud deck at 5000 feet AGL
Weather: BR  (mist)

METAR text: KMDT 181756Z 00000KT 2 1/2SM BR OVC009 M01/M02 A3007 RMK AO2 SLP185 60000 T10061022 10000 21028 58013
Conditions at: KMDT (MIDDLETOWN , PA, US) observed 1756 UTC 18 January 2019
Temperature: -0.6°C (31°F)
Dewpoint: -2.2°C (28°F) [RH = 89%]
Pressure (altimeter): 30.07 inches Hg (1018.4 mb)
[Sea-level pressure: 1018.5 mb]
Winds: calm
Visibility: 2.50 miles (4.02 km)
Ceiling: 900 feet AGL
Clouds: overcast cloud deck at 900 feet AGL
Weather: BR  (mist)

METAR text: KMDT 181719Z 00000KT 2SM BR OVC007 M01/M02 A3008 RMK AO2 T10061022
Conditions at: KMDT (MIDDLETOWN , PA, US) observed 1719 UTC 18 January 2019
Temperature: -0.6°C (31°F)
Dewpoint: -2.2°C (28°F) [RH = 89%]
Pressure (altimeter): 30.08 inches Hg (1018.7 mb)
Winds: calm
Visibility: 2.00 miles (3.22 km)
Ceiling: 700 feet AGL
Clouds: overcast cloud deck at 700 feet AGL
Weather: BR  (mist)

METAR text: KMDT 181711Z 00000KT 1 3/4SM BR OVC006 M01/M02 A3009 RMK AO2 T10061022
Conditions at: KMDT (MIDDLETOWN , PA, US) observed 1711 UTC 18 January 2019
Temperature: -0.6°C (31°F)
Dewpoint: -2.2°C (28°F) [RH = 89%]
Pressure (altimeter): 30.09 inches Hg (1019.0 mb)
Winds: calm
Visibility: 1.75 miles (2.82 km)
Ceiling: 600 feet AGL
Clouds: overcast cloud deck at 600 feet AGL
Weather: BR  (mist)

METAR text: KMDT 181656Z 00000KT 2SM BR OVC005 M01/M03 A3010 RMK AO2 SLP196 T10061028
Conditions at: KMDT (MIDDLETOWN , PA, US) observed 1656 UTC 18 January 2019
Temperature: -0.6°C (31°F)
Dewpoint: -2.8°C (27°F) [RH = 85%]
Pressure (altimeter): 30.10 inches Hg (1019.4 mb)
[Sea-level pressure: 1019.6 mb]
Winds: calm
Visibility: 2.00 miles (3.22 km)
Ceiling: 500 feet AGL
Clouds: overcast cloud deck at 500 feet AGL
Weather: BR  (mist)

METAR text: KMDT 181556Z 00000KT 2 1/2SM BR OVC006 M01/M03 A3011 RMK AO2 SNE53 SLP201 P0000 T10111033
Conditions at: KMDT (MIDDLETOWN , PA, US) observed 1556 UTC 18 January 2019
Temperature: -1.1°C (30°F)
Dewpoint: -3.3°C (26°F) [RH = 85%]
Pressure (altimeter): 30.11 inches Hg (1019.7 mb)
[Sea-level pressure: 1020.1 mb]
Winds: calm
Visibility: 2.50 miles (4.02 km)
Ceiling: 600 feet AGL
Clouds: overcast cloud deck at 600 feet AGL
Weather: BR  (mist)

METAR text: KMDT 181545Z 00000KT 1 1/2SM -SN BR OVC006 M01/M03 A3011 RMK AO2 P0000 T10111028
Conditions at: KMDT (MIDDLETOWN , PA, US) observed 1545 UTC 18 January 2019
Temperature: -1.1°C (30°F)
Dewpoint: -2.8°C (27°F) [RH = 88%]
Pressure (altimeter): 30.11 inches Hg (1019.7 mb)
Winds: calm
Visibility: 1.50 miles (2.41 km)
Ceiling: 600 feet AGL
Clouds: overcast cloud deck at 600 feet AGL
Weather: -SN BR  (light snow, mist)

METAR text: KMDT 181456Z 00000KT 2 1/2SM -SN BR OVC006 M02/M04 A3010 RMK AO2 SLP198 P0000 60000 T10171039 53010
Conditions at: KMDT (MIDDLETOWN , PA, US) observed 1456 UTC 18 January 2019
Temperature: -1.7°C (29°F)
Dewpoint: -3.9°C (25°F) [RH = 85%]
Pressure (altimeter): 30.10 inches Hg (1019.4 mb)
[Sea-level pressure: 1019.8 mb]
Winds: calm
Visibility: 2.50 miles (4.02 km)
Ceiling: 600 feet AGL
Clouds: overcast cloud deck at 600 feet AGL
Weather: -SN BR  (light snow, mist)

METAR text: KMDT 181439Z 00000KT 2 1/2SM -SN BR OVC006 M02/M04 A3010 RMK AO2 P0000 T10171039
Conditions at: KMDT (MIDDLETOWN , PA, US) observed 1439 UTC 18 January 2019
Temperature: -1.7°C (29°F)
Dewpoint: -3.9°C (25°F) [RH = 85%]
Pressure (altimeter): 30.10 inches Hg (1019.4 mb)
Winds: calm
Visibility: 2.50 miles (4.02 km)
Ceiling: 600 feet AGL
Clouds: overcast cloud deck at 600 feet AGL
Weather: -SN BR  (light snow, mist)

METAR text: KMDT 181356Z 00000KT 3SM -SN BR OVC007 M02/M04 A3009 RMK AO2 SLP193 P0000 T10221044
Conditions at: KMDT (MIDDLETOWN , PA, US) observed 1356 UTC 18 January 2019
Temperature: -2.2°C (28°F)
Dewpoint: -4.4°C (24°F) [RH = 85%]
Pressure (altimeter): 30.09 inches Hg (1019.0 mb)
[Sea-level pressure: 1019.3 mb]
Winds: calm
Visibility: 3 miles ( 5 km)
Ceiling: 700 feet AGL
Clouds: overcast cloud deck at 700 feet AGL
Weather: -SN BR  (light snow, mist)

METAR text: KMDT 181256Z 00000KT 3SM -SN BR OVC008 M02/M04 A3008 RMK AO2 SNB28 SLP190 P0000 T10221044
Conditions at: KMDT (MIDDLETOWN , PA, US) observed 1256 UTC 18 January 2019
Temperature: -2.2°C (28°F)
Dewpoint: -4.4°C (24°F) [RH = 85%]
Pressure (altimeter): 30.08 inches Hg (1018.7 mb)
[Sea-level pressure: 1019.0 mb]
Winds: calm
Visibility: 3 miles ( 5 km)
Ceiling: 800 feet AGL
Clouds: overcast cloud deck at 800 feet AGL
Weather: -SN BR  (light snow, mist)

METAR text: KMDT 181240Z 02003KT 2SM -SN BR OVC008 M03/M04 A3007 RMK AO2 SNB28 P0000 T10281044
Conditions at: KMDT (MIDDLETOWN , PA, US) observed 1240 UTC 18 January 2019
Temperature: -2.8°C (27°F)
Dewpoint: -4.4°C (24°F) [RH = 89%]
Pressure (altimeter): 30.07 inches Hg (1018.4 mb)
Winds: from the NNE (20 degrees) at 3 MPH (3 knots; 1.5 m/s)
Visibility: 2.00 miles (3.22 km)
Ceiling: 800 feet AGL
Clouds: overcast cloud deck at 800 feet AGL
Weather: -SN BR  (light snow, mist)

METAR text: KMDT 181156Z 06003KT 5SM BR OVC008 M02/M04 A3007 RMK AO2 SLP188 4/002 60002 70010 T10221044 11022 21028 55004
Conditions at: KMDT (MIDDLETOWN , PA, US) observed 1156 UTC 18 January 2019
Temperature: -2.2°C (28°F)
Dewpoint: -4.4°C (24°F) [RH = 85%]
Pressure (altimeter): 30.07 inches Hg (1018.4 mb)
[Sea-level pressure: 1018.8 mb]
Winds: from the ENE (60 degrees) at 3 MPH (3 knots; 1.5 m/s)
Visibility: 5 miles ( 8 km)
Ceiling: 800 feet AGL
Clouds: overcast cloud deck at 800 feet AGL
Weather: BR  (mist)

METAR text: KMDT 181056Z 00000KT 6SM BR OVC009 M02/M04 A3007 RMK AO2 SNE34 SLP186 P0000 T10221039
Conditions at: KMDT (MIDDLETOWN , PA, US) observed 1056 UTC 18 January 2019
Temperature: -2.2°C (28°F)
Dewpoint: -3.9°C (25°F) [RH = 88%]
Pressure (altimeter): 30.07 inches Hg (1018.4 mb)
[Sea-level pressure: 1018.6 mb]
Winds: calm
Visibility: 6 miles (10 km)
Ceiling: 900 feet AGL
Clouds: overcast cloud deck at 900 feet AGL
Weather: BR  (mist)

METAR text: KMDT 181036Z 10004KT 6SM BR OVC009 M02/M04 A3006 RMK AO2 SNE34 P0000 T10221044
Conditions at: KMDT (MIDDLETOWN , PA, US) observed 1036 UTC 18 January 2019
Temperature: -2.2°C (28°F)
Dewpoint: -4.4°C (24°F) [RH = 85%]
Pressure (altimeter): 30.06 inches Hg (1018.0 mb)
Winds: from the E (100 degrees) at 5 MPH (4 knots; 2.1 m/s)
Visibility: 6 miles (10 km)
Ceiling: 900 feet AGL
Clouds: overcast cloud deck at 900 feet AGL
Weather: BR  (mist)

METAR text: KMDT 180956Z 11005KT 4SM -SN BR OVC010 M02/M04 A3007 RMK AO2 SLP186 P0000 T10221044
Conditions at: KMDT (MIDDLETOWN , PA, US) observed 0956 UTC 18 January 2019
Temperature: -2.2°C (28°F)
Dewpoint: -4.4°C (24°F) [RH = 85%]
Pressure (altimeter): 30.07 inches Hg (1018.4 mb)
[Sea-level pressure: 1018.6 mb]
Winds: from the ESE (110 degrees) at 6 MPH (5 knots; 2.6 m/s)
Visibility: 4 miles ( 6 km)
Ceiling: 1000 feet AGL
Clouds: overcast cloud deck at 1000 feet AGL
Weather: -SN BR  (light snow, mist)

METAR text: KMDT 180927Z 10004KT 3SM -SN BR OVC010 M02/M04 A3008 RMK AO2 P0000 T10221044
Conditions at: KMDT (MIDDLETOWN , PA, US) observed 0927 UTC 18 January 2019
Temperature: -2.2°C (28°F)
Dewpoint: -4.4°C (24°F) [RH = 85%]
Pressure (altimeter): 30.08 inches Hg (1018.7 mb)
Winds: from the E (100 degrees) at 5 MPH (4 knots; 2.1 m/s)
Visibility: 3 miles ( 5 km)
Ceiling: 1000 feet AGL
Clouds: overcast cloud deck at 1000 feet AGL
Weather: -SN BR  (light snow, mist)

METAR text: KMDT 180856Z 10005KT 2 1/2SM -SN BR OVC011 M03/M04 A3009 RMK AO2 CIG 006V012 SLP192 P0001 60002 T10281044 58018
Conditions at: KMDT (MIDDLETOWN , PA, US) observed 0856 UTC 18 January 2019
Temperature: -2.8°C (27°F)
Dewpoint: -4.4°C (24°F) [RH = 89%]
Pressure (altimeter): 30.09 inches Hg (1019.0 mb)
[Sea-level pressure: 1019.2 mb]
Winds: from the E (100 degrees) at 6 MPH (5 knots; 2.6 m/s)
Visibility: 2.50 miles (4.02 km)
Ceiling: 1100 feet AGL
Clouds: overcast cloud deck at 1100 feet AGL
Weather: -SN BR  (light snow, mist)

METAR text: KMDT 180828Z 11005KT 2 1/2SM -SN BR FEW007 OVC011 M03/M04 A3011 RMK AO2 P0001 T10281044
Conditions at: KMDT (MIDDLETOWN , PA, US) observed 0828 UTC 18 January 2019
Temperature: -2.8°C (27°F)
Dewpoint: -4.4°C (24°F) [RH = 89%]
Pressure (altimeter): 30.11 inches Hg (1019.7 mb)
Winds: from the ESE (110 degrees) at 6 MPH (5 knots; 2.6 m/s)
Visibility: 2.50 miles (4.02 km)
Ceiling: 1100 feet AGL
Clouds: few clouds at 700 feet AGL
overcast cloud deck at 1100 feet AGL
Weather: -SN BR  (light snow, mist)

METAR text: KMDT 180756Z 09005KT 1 3/4SM -SN BR OVC011 M03/M04 A3012 RMK AO2 SLP205 P0001 T10281044
Conditions at: KMDT (MIDDLETOWN , PA, US) observed 0756 UTC 18 January 2019
Temperature: -2.8°C (27°F)
Dewpoint: -4.4°C (24°F) [RH = 89%]
Pressure (altimeter): 30.12 inches Hg (1020.1 mb)
[Sea-level pressure: 1020.5 mb]
Winds: from the E (90 degrees) at 6 MPH (5 knots; 2.6 m/s)
Visibility: 1.75 miles (2.82 km)
Ceiling: 1100 feet AGL
Clouds: overcast cloud deck at 1100 feet AGL
Weather: -SN BR  (light snow, mist)

METAR text: KMDT 180746Z 10006KT 1 1/4SM -SN BR OVC010 M03/M04 A3012 RMK AO2 P0001 T10281044
Conditions at: KMDT (MIDDLETOWN , PA, US) observed 0746 UTC 18 January 2019
Temperature: -2.8°C (27°F)
Dewpoint: -4.4°C (24°F) [RH = 89%]
Pressure (altimeter): 30.12 inches Hg (1020.1 mb)
Winds: from the E (100 degrees) at 7 MPH (6 knots; 3.1 m/s)
Visibility: 1.25 miles (2.01 km)
Ceiling: 1000 feet AGL
Clouds: overcast cloud deck at 1000 feet AGL
Weather: -SN BR  (light snow, mist)

METAR text: KMDT 180714Z 08005KT 1 3/4SM -SN BR OVC009 M03/M04 A3013 RMK AO2 P0000 T10281044
Conditions at: KMDT (MIDDLETOWN , PA, US) observed 0714 UTC 18 January 2019
Temperature: -2.8°C (27°F)
Dewpoint: -4.4°C (24°F) [RH = 89%]
Pressure (altimeter): 30.13 inches Hg (1020.4 mb)
Winds: from the E (80 degrees) at 6 MPH (5 knots; 2.6 m/s)
Visibility: 1.75 miles (2.82 km)
Ceiling: 900 feet AGL
Clouds: overcast cloud deck at 900 feet AGL
Weather: -SN BR  (light snow, mist)

METAR text: KMDT 180656Z 08005KT 3SM -SN BR OVC009 M02/M04 A3013 RMK AO2 SLP207 P0000 T10221044
Conditions at: KMDT (MIDDLETOWN , PA, US) observed 0656 UTC 18 January 2019
Temperature: -2.2°C (28°F)
Dewpoint: -4.4°C (24°F) [RH = 85%]
Pressure (altimeter): 30.13 inches Hg (1020.4 mb)
[Sea-level pressure: 1020.7 mb]
Winds: from the E (80 degrees) at 6 MPH (5 knots; 2.6 m/s)
Visibility: 3 miles ( 5 km)
Ceiling: 900 feet AGL
Clouds: overcast cloud deck at 900 feet AGL
Weather: -SN BR  (light snow, mist)

METAR text: KMDT 180645Z 09005KT 3SM -SN BR OVC009 M02/M04 A3013 RMK AO2 P0000 T10221044
Conditions at: KMDT (MIDDLETOWN , PA, US) observed 0645 UTC 18 January 2019
Temperature: -2.2°C (28°F)
Dewpoint: -4.4°C (24°F) [RH = 85%]
Pressure (altimeter): 30.13 inches Hg (1020.4 mb)
Winds: from the E (90 degrees) at 6 MPH (5 knots; 2.6 m/s)
Visibility: 3 miles ( 5 km)
Ceiling: 900 feet AGL
Clouds: overcast cloud deck at 900 feet AGL
Weather: -SN BR  (light snow, mist)

METAR text: KMDT 180633Z 09006KT 2 1/2SM -SN BR OVC010 M02/M04 A3013 RMK AO2 P0000 T10221044
Conditions at: KMDT (MIDDLETOWN , PA, US) observed 0633 UTC 18 January 2019
Temperature: -2.2°C (28°F)
Dewpoint: -4.4°C (24°F) [RH = 85%]
Pressure (altimeter): 30.13 inches Hg (1020.4 mb)
Winds: from the E (90 degrees) at 7 MPH (6 knots; 3.1 m/s)
Visibility: 2.50 miles (4.02 km)
Ceiling: 1000 feet AGL
Clouds: overcast cloud deck at 1000 feet AGL
Weather: -SN BR  (light snow, mist)

METAR text: KMDT 180556Z 11006KT 1 3/4SM -SN BR OVC011 M02/M04 A3014 RMK AO2 SLP210 4/001 P0001 60006 T10221044 11017 21022 58020
Conditions at: KMDT (MIDDLETOWN , PA, US) observed 0556 UTC 18 January 2019
Temperature: -2.2°C (28°F)
Dewpoint: -4.4°C (24°F) [RH = 85%]
Pressure (altimeter): 30.14 inches Hg (1020.7 mb)
[Sea-level pressure: 1021.0 mb]
Winds: from the ESE (110 degrees) at 7 MPH (6 knots; 3.1 m/s)
Visibility: 1.75 miles (2.82 km)
Ceiling: 1100 feet AGL
Clouds: overcast cloud deck at 1100 feet AGL
Weather: -SN BR  (light snow, mist)

METAR text: KMDT 180518Z 11007KT 2SM -SN BR OVC010 M02/M04 A3015 RMK AO2 P0001 T10221039
Conditions at: KMDT (MIDDLETOWN , PA, US) observed 0518 UTC 18 January 2019
Temperature: -2.2°C (28°F)
Dewpoint: -3.9°C (25°F) [RH = 88%]
Pressure (altimeter): 30.15 inches Hg (1021.1 mb)
Winds: from the ESE (110 degrees) at 8 MPH (7 knots; 3.6 m/s)
Visibility: 2.00 miles (3.22 km)
Ceiling: 1000 feet AGL
Clouds: overcast cloud deck at 1000 feet AGL
Weather: -SN BR  (light snow, mist)

METAR text: KMDT 180456Z 11006KT 1 1/4SM -SN BR OVC010 M02/M04 A3017 RMK AO2 SLP219 P0001 T10221039 400221033
Conditions at: KMDT (MIDDLETOWN , PA, US) observed 0456 UTC 18 January 2019
Temperature: -2.2°C (28°F)
Dewpoint: -3.9°C (25°F) [RH = 88%]
Pressure (altimeter): 30.17 inches Hg (1021.8 mb)
[Sea-level pressure: 1021.9 mb]
Winds: from the ESE (110 degrees) at 7 MPH (6 knots; 3.1 m/s)
Visibility: 1.25 miles (2.01 km)
Ceiling: 1000 feet AGL
Clouds: overcast cloud deck at 1000 feet AGL
Weather: -SN BR  (light snow, mist)

METAR text: KMDT 180430Z 11006KT 1 1/2SM -SN BR OVC012 M02/M04 A3018 RMK AO2 P0000 T10221039
Conditions at: KMDT (MIDDLETOWN , PA, US) observed 0430 UTC 18 January 2019
Temperature: -2.2°C (28°F)
Dewpoint: -3.9°C (25°F) [RH = 88%]
Pressure (altimeter): 30.18 inches Hg (1022.1 mb)
Winds: from the ESE (110 degrees) at 7 MPH (6 knots; 3.1 m/s)
Visibility: 1.50 miles (2.41 km)
Ceiling: 1200 feet AGL
Clouds: overcast cloud deck at 1200 feet AGL
Weather: -SN BR  (light snow, mist)

METAR text: KMDT 180356Z 12007KT 2SM -SN BR OVC011 M02/M04 A3018 RMK AO2 SLP223 P0001 T10221039
Conditions at: KMDT (MIDDLETOWN , PA, US) observed 0356 UTC 18 January 2019
Temperature: -2.2°C (28°F)
Dewpoint: -3.9°C (25°F) [RH = 88%]
Pressure (altimeter): 30.18 inches Hg (1022.1 mb)
[Sea-level pressure: 1022.3 mb]
Winds: from the ESE (120 degrees) at 8 MPH (7 knots; 3.6 m/s)
Visibility: 2.00 miles (3.22 km)
Ceiling: 1100 feet AGL
Clouds: overcast cloud deck at 1100 feet AGL
Weather: -SN BR  (light snow, mist)

METAR text: KMDT 180341Z 12006KT 2SM -SN BR OVC011 M02/M04 A3019 RMK AO2 SFC VIS 2 1/2 P0001 T10221039
Conditions at: KMDT (MIDDLETOWN , PA, US) observed 0341 UTC 18 January 2019
Temperature: -2.2°C (28°F)
Dewpoint: -3.9°C (25°F) [RH = 88%]
Pressure (altimeter): 30.19 inches Hg (1022.4 mb)
Winds: from the ESE (120 degrees) at 7 MPH (6 knots; 3.1 m/s)
Visibility: 2.00 miles (3.22 km)
Ceiling: 1100 feet AGL
Clouds: overcast cloud deck at 1100 feet AGL
Weather: -SN BR  (light snow, mist)

METAR text: KMDT 180328Z 11006KT 1 3/4SM -SN BR OVC011 M02/M04 A3019 RMK AO2 P0001 T10221039
Conditions at: KMDT (MIDDLETOWN , PA, US) observed 0328 UTC 18 January 2019
Temperature: -2.2°C (28°F)
Dewpoint: -3.9°C (25°F) [RH = 88%]
Pressure (altimeter): 30.19 inches Hg (1022.4 mb)
Winds: from the ESE (110 degrees) at 7 MPH (6 knots; 3.1 m/s)
Visibility: 1.75 miles (2.82 km)
Ceiling: 1100 feet AGL
Clouds: overcast cloud deck at 1100 feet AGL
Weather: -SN BR  (light snow, mist)

METAR text: KMDT 180314Z 12006KT 2 1/2SM -SN BR OVC011 M02/M04 A3020 RMK AO2 P0000 T10221039
Conditions at: KMDT (MIDDLETOWN , PA, US) observed 0314 UTC 18 January 2019
Temperature: -2.2°C (28°F)
Dewpoint: -3.9°C (25°F) [RH = 88%]
Pressure (altimeter): 30.20 inches Hg (1022.8 mb)
Winds: from the ESE (120 degrees) at 7 MPH (6 knots; 3.1 m/s)
Visibility: 2.50 miles (4.02 km)
Ceiling: 1100 feet AGL
Clouds: overcast cloud deck at 1100 feet AGL
Weather: -SN BR  (light snow, mist)

METAR text: KMDT 180256Z 12006KT 1 1/2SM -SN BR OVC010 M02/M04 A3020 RMK AO2 SNE17B36 SLP230 P0000 60003 T10221039 56013
Conditions at: KMDT (MIDDLETOWN , PA, US) observed 0256 UTC 18 January 2019
Temperature: -2.2°C (28°F)
Dewpoint: -3.9°C (25°F) [RH = 88%]
Pressure (altimeter): 30.20 inches Hg (1022.8 mb)
[Sea-level pressure: 1023.0 mb]
Winds: from the ESE (120 degrees) at 7 MPH (6 knots; 3.1 m/s)
Visibility: 1.50 miles (2.41 km)
Ceiling: 1000 feet AGL
Clouds: overcast cloud deck at 1000 feet AGL
Weather: -SN BR  (light snow, mist)

METAR text: KMDT 180249Z 12007KT 2SM -SN BR OVC010 M02/M04 A3020 RMK AO2 SNE17B36 P0000 T10221044
Conditions at: KMDT (MIDDLETOWN , PA, US) observed 0249 UTC 18 January 2019
Temperature: -2.2°C (28°F)
Dewpoint: -4.4°C (24°F) [RH = 85%]
Pressure (altimeter): 30.20 inches Hg (1022.8 mb)
Winds: from the ESE (120 degrees) at 8 MPH (7 knots; 3.6 m/s)
Visibility: 2.00 miles (3.22 km)
Ceiling: 1000 feet AGL
Clouds: overcast cloud deck at 1000 feet AGL
Weather: -SN BR  (light snow, mist)

METAR text: KMDT 180208Z 13006KT 6SM -SN OVC012 M02/M04 A3020 RMK AO2 P0000 T10221044
Conditions at: KMDT (MIDDLETOWN , PA, US) observed 0208 UTC 18 January 2019
Temperature: -2.2°C (28°F)
Dewpoint: -4.4°C (24°F) [RH = 85%]
Pressure (altimeter): 30.20 inches Hg (1022.8 mb)
Winds: from the SE (130 degrees) at 7 MPH (6 knots; 3.1 m/s)
Visibility: 6 miles (10 km)
Ceiling: 1200 feet AGL
Clouds: overcast cloud deck at 1200 feet AGL
Weather: -SN  (light snow)

METAR text: KMDT 180156Z 13007KT 1SM R13/P6000FT -SN OVC012 M02/M04 A3020 RMK AO2 SFC VIS 3 SLP232 P0001 T10221039
Conditions at: KMDT (MIDDLETOWN , PA, US) observed 0156 UTC 18 January 2019
Temperature: -2.2°C (28°F)
Dewpoint: -3.9°C (25°F) [RH = 88%]
Pressure (altimeter): 30.20 inches Hg (1022.8 mb)
[Sea-level pressure: 1023.2 mb]
Winds: from the SE (130 degrees) at 8 MPH (7 knots; 3.6 m/s)
Visibility: 1.00 miles (1.61 km)
Ceiling: 1200 feet AGL
Clouds: overcast cloud deck at 1200 feet AGL
Weather: -SN  (light snow)

METAR text: KMDT 180123Z 12007KT 1SM R13/P6000FT -SN SCT008 BKN012 OVC055 M02/M04 A3021 RMK AO2 SFC VIS 2 1/2 P0000 T10221039
Conditions at: KMDT (MIDDLETOWN , PA, US) observed 0123 UTC 18 January 2019
Temperature: -2.2°C (28°F)
Dewpoint: -3.9°C (25°F) [RH = 88%]
Pressure (altimeter): 30.21 inches Hg (1023.1 mb)
Winds: from the ESE (120 degrees) at 8 MPH (7 knots; 3.6 m/s)
Visibility: 1.00 miles (1.61 km)
Ceiling: 1200 feet AGL
Clouds: scattered clouds at 800 feet AGL
broken clouds at 1200 feet AGL
overcast cloud deck at 5500 feet AGL
Weather: -SN  (light snow)

METAR text: KMDT 180056Z 13007KT 1SM R13/P6000FT -SN BR BKN010 BKN044 OVC055 M02/M04 A3022 RMK AO2 SFC VIS 2 SLP239 P0002 T10221039
Conditions at: KMDT (MIDDLETOWN , PA, US) observed 0056 UTC 18 January 2019
Temperature: -2.2°C (28°F)
Dewpoint: -3.9°C (25°F) [RH = 88%]
Pressure (altimeter): 30.22 inches Hg (1023.5 mb)
[Sea-level pressure: 1023.9 mb]
Winds: from the SE (130 degrees) at 8 MPH (7 knots; 3.6 m/s)
Visibility: 1.00 miles (1.61 km)
Ceiling: 1000 feet AGL
Clouds: broken clouds at 1000 feet AGL
broken clouds at 4400 feet AGL
overcast cloud deck at 5500 feet AGL
Weather: -SN BR  (light snow, mist)

METAR text: KMDT 180049Z 12007KT 1SM R13/P6000FT -SN BR BKN010 BKN017 OVC046 M02/M04 A3022 RMK AO2 SFC VIS 2 P0002 T10221039
Conditions at: KMDT (MIDDLETOWN , PA, US) observed 0049 UTC 18 January 2019
Temperature: -2.2°C (28°F)
Dewpoint: -3.9°C (25°F) [RH = 88%]
Pressure (altimeter): 30.22 inches Hg (1023.5 mb)
Winds: from the ESE (120 degrees) at 8 MPH (7 knots; 3.6 m/s)
Visibility: 1.00 miles (1.61 km)
Ceiling: 1000 feet AGL
Clouds: broken clouds at 1000 feet AGL
broken clouds at 1700 feet AGL
overcast cloud deck at 4600 feet AGL
Weather: -SN BR  (light snow, mist)

METAR text: KMDT 180021Z 13007KT 3/4SM R13/P6000FT -SN BR BKN006 OVC013 M02/M04 A3023 RMK AO2 TWR VIS 1 P0001 T10221039
Conditions at: KMDT (MIDDLETOWN , PA, US) observed 0021 UTC 18 January 2019
Temperature: -2.2°C (28°F)
Dewpoint: -3.9°C (25°F) [RH = 88%]
Pressure (altimeter): 30.23 inches Hg (1023.8 mb)
Winds: from the SE (130 degrees) at 8 MPH (7 knots; 3.6 m/s)
Visibility: 0.75 miles (1.21 km)
Ceiling: 600 feet AGL
Clouds: broken clouds at 600 feet AGL
overcast cloud deck at 1300 feet AGL
Weather: -SN BR  (light snow, mist)

Forecast for: KMDT (MIDDLETOWN , PA, US)
Text: KMDT 191139Z 1912/2012 VRB03KT 6SM BR OVC040
Forecast period: 1200 to 1500 UTC 19 January 2019
Forecast type: FROM: standard forecast or significant change
Winds: variable direction winds at 3 MPH (3 knots; 1.5 m/s)
Visibility: 6 miles (10 km)
Ceiling: 4000 feet AGL
Clouds: overcast cloud deck at 4000 feet AGL
Weather: BR  (mist)
Text: FM191500 10003KT 5SM BR VCSH OVC030
Forecast period: 1500 to 1800 UTC 19 January 2019
Forecast type: FROM: standard forecast or significant change
Winds: from the E (100 degrees) at 3 MPH (3 knots; 1.5 m/s)
Visibility: 5 miles (8 km)
Ceiling: 3000 feet AGL
Clouds: overcast cloud deck at 3000 feet AGL
Weather: BR VCSH  (mist, showers in vicinity)
Text: FM191800 12005KT 2SM -SN BR OVC015
Forecast period: 1800 to 2100 UTC 19 January 2019
Forecast type: FROM: standard forecast or significant change
Winds: from the ESE (120 degrees) at 6 MPH (5 knots; 2.6 m/s)
Visibility: 2.00 miles (3.22 km)
Ceiling: 1500 feet AGL
Clouds: overcast cloud deck at 1500 feet AGL
Weather: -SN BR  (light snow, mist)
Text: FM192100 11006KT 1/2SM SN FG OVC007
Forecast period: 2100 UTC 19 January 2019 to 0000 UTC 20 January 2019
Forecast type: FROM: standard forecast or significant change
Winds: from the ESE (110 degrees) at 7 MPH (6 knots; 3.1 m/s)
Visibility: 0.50 miles (0.80 km)
Ceiling: 700 feet AGL
Clouds: overcast cloud deck at 700 feet AGL
Weather: SN FG  (moderate snow, fog)
Text: FM200000 10008KT 1/2SM SNPL FG OVC003
Forecast period: 0000 to 0500 UTC 20 January 2019
Forecast type: FROM: standard forecast or significant change
Winds: from the E (100 degrees) at 9 MPH (8 knots; 4.1 m/s)
Visibility: 0.50 miles (0.80 km)
Ceiling: 300 feet AGL
Clouds: overcast cloud deck at 300 feet AGL
Weather: SN PL FG  (moderate snow, moderate ice pellets, fog)
Text: FM200500 04008KT 3/4SM FZRAPL BR OVC003
Forecast period: 0500 to 1200 UTC 20 January 2019
Forecast type: FROM: standard forecast or significant change
Winds: from the NE (40 degrees) at 9 MPH (8 knots; 4.1 m/s)
Visibility: 0.75 miles (1.21 km)
Ceiling: 300 feet AGL
Clouds: overcast cloud deck at 300 feet AGL
Weather: FZRA PL BR  (freezing rain, moderate ice pellets, mist)